Craigsville, WV (26205)

7:52 PM EST on February 12, 2016 (GMT -0500)
The Family Center | | Change Station
CLOSE
Current Station
Personal Weather Station
Location: Richwood, WV
Elevation: 2192 ft
Nearby Weather Stations
Active Advisory: Wind Chill Advisory

Elev 2192 ft 38.22 °N, 80.53 °W | Updated 20 minutes ago

Overcast
Overcast
22.0 °F
Feels Like 22 °F
N
3.0
Wind Variable Wind from ESE
Gusts 4.0 mph

Today
High -- | Low -- °F
--% Chance of Precip.
Yesterday
High -- | Low -- °F
Precip. -- in
Pressure 29.95 in
Visibility 10.0 miles
Clouds Mostly Cloudy 2900 ft
Overcast 3800 ft
Windchill 22 °F
Dew Point 16 °F
Humidity 78%
Rainfall 0.00 in
Snow Depth Not available.
7:17 AM 5:57 PM
Waxing Crescent, 25% visible
METAR KLWB 130035Z AUTO 30007KT 10SM BKN029 OVC038 M03/M07 A2995 RMK AO2 T10261075
Pressure 29.95 in
Visibility 10.0 miles
Clouds Mostly Cloudy 2900 ft
Overcast 3800 ft
Windchill 22 °F
Dew Point 16 °F
Humidity 78%
Rainfall 0.00 in
Snow Depth Not available.
7:17 AM 5:57 PM
Waxing Crescent, 25% visible
METAR KLWB 130035Z AUTO 30007KT 10SM BKN029 OVC038 M03/M07 A2995 RMK AO2 T10261075

10-Day Weather Forecast

Almanac

Astronomy

Feb. 12, 2016 Rise Set
Actual Time
Civil Twilight
Nautical Twilight
Astronomical Twilight
Moon
Length of Visible Light
Length of Day
Tomorrow will be .
, % of the Moon is Illuminated

Today's Extremes

State Highs State Lows

Community

WunderPhotos

Upload Photos

1,892,444 photos uploaded!

WunderBlog® & News

Nearby

Air Quality

  Air Quality AQ Index Pollutant
Not available.

Snow Depth

Station Depth Elevation

Earthquake Activity

City Distance Mag. Time & Date
Minimum magnitude displayed is 2.5.

Coastal Water Temperatures

Place Temperature

Stations

Nearby Weather Stations

Station Location Temp. Windchill Dew Point Humidity Wind Precip. Elev Updated Type
                   

Watches & Warnings

Wind Chill Advisory
Issued: 3:22 PM EST Feb. 12, 2016 – National Weather Service

... Wind Chill Advisory remains in effect from midnight tonight to
9 am EST Sunday...

* hazard... very cold air and wind.

* Wind chill readings... 10 below to 20 below zero... except 20 to
30 below zero across the High Mountain terrain.

* Timing... late tonight into Sunday morning.

* Winds... northwest 15 to 25 mph... gusts 30 to 40 mph.

* Temperatures... from 5 below zero across high elevations to 10
above zero along some river valleys tonight.

* Impacts... frost bite and hypothermia are possible if
precautions are not taken.

Precautionary/preparedness actions...

A Wind Chill Advisory means that very cold air and strong winds
will combine to generate low wind chills. This will result in
frost bite and lead to hypothermia if precautions are not taken.
If you must venture outdoors... make sure you wear a hat and
gloves. Limit your exposure time outdoors.



Ktb